createdAt,value
2017-11-18T00:01:37.639Z,49.17
2017-11-18T00:04:05.073Z,50.63
2017-11-18T00:06:32.939Z,53.27
2017-11-18T00:09:00.372Z,51.80
2017-11-18T00:11:28.569Z,51.57
2017-11-18T00:13:55.998Z,56.00
2017-11-18T00:16:23.438Z,52.80
2017-11-18T00:18:50.881Z,56.50
2017-11-18T00:21:18.565Z,57.07
2017-11-18T00:23:46.813Z,56.80
2017-11-18T00:26:14.255Z,62.07
2017-11-18T00:28:41.694Z,54.43
2017-11-18T00:31:09.120Z,49.50
2017-11-18T00:33:36.562Z,49.30
2017-11-18T00:36:03.986Z,58.23
2017-11-18T00:38:31.433Z,59.57
2017-11-18T00:40:58.862Z,51.47
2017-11-18T00:43:27.082Z,47.67
2017-11-18T00:45:54.517Z,57.67
2017-11-18T00:48:24.948Z,49.03
2017-11-18T00:50:52.369Z,43.53
2017-11-18T00:53:20.583Z,52.40
2017-11-18T00:55:48.541Z,46.20
2017-11-18T00:58:15.989Z,46.20
2017-11-18T01:00:43.416Z,45.70
2017-11-18T01:03:11.694Z,43.00
2017-11-18T01:05:39.131Z,50.27
2017-11-18T01:08:06.575Z,49.90
2017-11-18T01:10:34.116Z,44.00
2017-11-18T01:13:01.959Z,37.90
2017-11-18T01:15:29.390Z,52.03
2017-11-18T01:17:56.830Z,54.63
2017-11-18T01:20:24.267Z,42.07
2017-11-18T01:22:51.712Z,45.57
2017-11-18T01:25:19.151Z,34.83
2017-11-18T01:27:46.594Z,41.57
2017-11-18T01:30:14.804Z,40.10
2017-11-18T01:32:42.240Z,44.87
2017-11-18T01:35:09.681Z,44.53
2017-11-18T01:37:37.869Z,42.50
2017-11-18T01:40:05.309Z,40.33
2017-11-18T01:42:34.411Z,40.77
2017-11-18T01:45:02.619Z,44.90
2017-11-18T01:47:30.455Z,38.67
2017-11-18T01:49:58.662Z,37.73
2017-11-18T01:52:26.103Z,39.30
2017-11-18T01:54:53.540Z,40.50
2017-11-18T01:57:21.730Z,37.83
2017-11-18T01:59:49.167Z,32.03
2017-11-18T02:02:29.175Z,38.07
2017-11-18T02:04:56.610Z,37.73
2017-11-18T02:07:24.050Z,34.63
2017-11-18T02:09:51.497Z,36.40
2017-11-18T02:12:19.694Z,36.30
2017-11-18T02:14:47.117Z,37.80
2017-11-18T02:17:15.834Z,41.40
2017-11-18T02:19:43.287Z,34.07
2017-11-18T02:22:10.759Z,29.43
2017-11-18T02:24:38.482Z,29.13
2017-11-18T02:27:06.625Z,36.37
2017-11-18T02:29:34.064Z,35.07
2017-11-18T02:32:01.513Z,29.93
2017-11-18T02:34:29.353Z,33.03
2017-11-18T02:36:57.544Z,33.60
2017-11-18T02:39:24.958Z,35.17
2017-11-18T02:41:53.175Z,35.70
2017-11-18T02:44:20.635Z,34.83
2017-11-18T02:46:48.068Z,29.47
2017-11-18T02:49:15.505Z,33.30
2017-11-18T02:51:44.246Z,31.43
2017-11-18T02:54:11.666Z,33.07
2017-11-18T02:56:39.101Z,31.27
2017-11-18T02:59:07.309Z,28.43
2017-11-18T03:01:35.617Z,28.60
2017-11-18T03:04:03.042Z,33.57
2017-11-18T03:06:30.481Z,37.87
2017-11-18T03:08:59.219Z,42.23
2017-11-18T03:11:26.654Z,35.10
2017-11-18T03:13:54.108Z,27.90
2017-11-18T03:16:21.570Z,35.97
2017-11-18T03:18:51.577Z,47.43
2017-11-18T03:21:21.646Z,52.00
2017-11-18T03:23:49.090Z,41.27
2017-11-18T03:26:16.544Z,40.97
2017-11-18T03:28:43.981Z,42.53
2017-11-18T03:31:11.415Z,50.63
2017-11-18T03:33:38.858Z,41.53
2017-11-18T03:36:07.066Z,58.67
2017-11-18T03:38:34.934Z,43.10
2017-11-18T03:41:02.357Z,47.63
2017-11-18T03:43:30.905Z,31.57
2017-11-18T03:46:06.224Z,32.47
2017-11-18T03:48:33.670Z,44.00
2017-11-18T03:51:01.096Z,31.20
2017-11-18T03:53:29.313Z,29.50
2017-11-18T03:55:56.763Z,25.57
2017-11-18T03:58:24.629Z,36.70
2017-11-18T04:00:56.911Z,45.07
2017-11-18T04:03:24.377Z,40.90
2017-11-18T04:05:51.797Z,31.43
2017-11-18T04:08:19.225Z,26.80
2017-11-18T04:10:47.444Z,37.70
2017-11-18T04:13:14.896Z,33.90
2017-11-18T04:15:42.314Z,32.47
2017-11-18T04:18:11.076Z,42.03
2017-11-18T04:20:38.513Z,35.13
2017-11-18T04:23:05.953Z,31.63
2017-11-18T04:25:33.410Z,27.13
2017-11-18T04:28:01.465Z,31.33
2017-11-18T04:30:28.905Z,30.10
2017-11-18T04:32:57.135Z,29.77
2017-11-18T04:35:24.972Z,33.73
2017-11-18T04:37:52.802Z,31.47
2017-11-18T04:40:20.231Z,29.03
2017-11-18T04:42:47.660Z,33.40
2017-11-18T04:45:15.514Z,27.60
2017-11-18T04:47:42.937Z,29.03
2017-11-18T04:50:11.173Z,28.67
2017-11-18T04:52:39.342Z,30.13
2017-11-18T04:55:06.797Z,32.70
2017-11-18T04:57:34.261Z,33.90
2017-11-18T05:00:01.689Z,31.90
2017-11-18T05:02:29.121Z,27.53
2017-11-18T05:04:57.334Z,31.60
2017-11-18T05:07:24.767Z,30.77
2017-11-18T05:09:52.966Z,27.97
2017-11-18T05:12:20.405Z,28.10
2017-11-18T05:14:47.952Z,26.87
2017-11-18T05:17:16.145Z,27.60
2017-11-18T05:19:43.600Z,24.43
2017-11-18T05:22:11.572Z,25.17
2017-11-18T05:24:39.403Z,25.43
2017-11-18T05:27:06.808Z,24.63
2017-11-18T05:29:34.267Z,23.43
2017-11-18T05:32:01.685Z,24.30
2017-11-18T05:34:29.897Z,21.63
2017-11-18T05:36:57.326Z,23.57
2017-11-18T05:39:24.760Z,21.77
2017-11-18T05:41:52.196Z,23.23
2017-11-18T05:44:20.164Z,24.07
2017-11-18T05:46:47.713Z,28.77
2017-11-18T05:49:15.674Z,25.73
2017-11-18T05:51:43.101Z,26.30
2017-11-18T05:54:10.539Z,24.13
2017-11-18T05:56:38.749Z,25.17
2017-11-18T05:59:06.177Z,24.27
2017-11-18T06:01:34.666Z,24.07
2017-11-18T06:04:03.385Z,24.70
2017-11-18T06:06:31.595Z,20.33
2017-11-18T06:08:59.053Z,21.87
2017-11-18T06:11:26.753Z,22.67
2017-11-18T06:13:54.235Z,23.63
2017-11-18T06:16:21.669Z,23.77
2017-11-18T06:18:49.094Z,22.63
2017-11-18T06:21:17.298Z,22.97
2017-11-18T06:23:44.722Z,21.90
2017-11-18T06:26:12.177Z,20.00
2017-11-18T06:28:40.014Z,20.77
2017-11-18T06:31:08.218Z,21.47
2017-11-18T06:33:35.658Z,20.70
2017-11-18T06:36:03.102Z,19.43
2017-11-18T06:38:31.295Z,20.83
2017-11-18T06:40:58.729Z,19.13
2017-11-18T06:43:26.170Z,19.37
2017-11-18T06:45:53.596Z,20.80
2017-11-18T06:48:21.800Z,21.53
2017-11-18T06:50:49.239Z,20.77
2017-11-18T06:53:16.687Z,22.47
2017-11-18T06:55:44.889Z,20.90
2017-11-18T06:58:12.360Z,20.23
2017-11-18T07:00:39.773Z,19.40
2017-11-18T07:03:07.992Z,19.80
2017-11-18T07:05:35.422Z,21.47
2017-11-18T07:08:02.989Z,18.97
2017-11-18T07:10:30.409Z,17.77
2017-11-18T07:12:59.034Z,17.77
2017-11-18T07:15:26.867Z,20.30
2017-11-18T07:17:54.289Z,19.77
2017-11-18T07:20:21.725Z,19.40
2017-11-18T07:22:49.184Z,19.57
2017-11-18T07:25:16.598Z,17.83
2017-11-18T07:27:44.793Z,20.50
2017-11-18T07:30:12.230Z,20.67
2017-11-18T07:32:40.443Z,18.00
2017-11-18T07:35:07.898Z,18.70
2017-11-18T07:37:35.321Z,17.43
2017-11-18T07:40:03.967Z,17.13
2017-11-18T07:42:32.701Z,18.47
2017-11-18T07:45:00.127Z,16.67
2017-11-18T07:47:27.552Z,19.77
2017-11-18T07:49:55.699Z,18.17
2017-11-18T07:52:23.996Z,15.87
2017-11-18T07:54:51.431Z,15.13
2017-11-18T07:57:18.859Z,15.17
2017-11-18T07:59:47.063Z,15.20
2017-11-18T08:02:14.485Z,15.30
2017-11-18T08:04:43.568Z,14.03
2017-11-18T08:07:11.000Z,14.23
2017-11-18T08:09:38.802Z,15.37
2017-11-18T08:12:06.495Z,14.53
2017-11-18T08:14:34.681Z,15.03
2017-11-18T08:17:02.117Z,15.50
2017-11-18T08:19:30.894Z,16.13
2017-11-18T08:21:58.309Z,15.50
2017-11-18T08:24:25.745Z,13.80
2017-11-18T08:26:53.177Z,13.17
2017-11-18T08:29:20.615Z,12.53
2017-11-18T08:31:48.837Z,11.57
2017-11-18T08:34:17.105Z,11.57
2017-11-18T08:36:45.057Z,12.60
2017-11-18T08:39:12.507Z,11.17
2017-11-18T08:41:39.958Z,12.83
2017-11-18T08:44:08.162Z,12.57
2017-11-18T08:46:36.112Z,11.50
2017-11-18T08:49:04.706Z,11.37
2017-11-18T08:51:32.545Z,11.17
2017-11-18T08:56:31.690Z,10.40
2017-11-18T08:58:59.132Z,10.03
2017-11-18T09:01:26.589Z,10.17
2017-11-18T09:03:54.020Z,9.93
2017-11-18T09:06:21.512Z,9.53
2017-11-18T09:08:48.974Z,9.87
2017-11-18T09:11:16.606Z,10.33
2017-11-18T09:13:45.314Z,9.87
2017-11-18T09:16:12.754Z,10.00
2017-11-18T09:18:40.962Z,10.50
2017-11-18T09:21:09.297Z,11.03
2017-11-18T09:23:38.238Z,10.30
2017-11-18T09:26:05.767Z,11.13
2017-11-18T09:28:33.762Z,9.93
2017-11-18T09:31:01.200Z,10.10
2017-11-18T09:33:28.625Z,10.80
2017-11-18T09:35:56.054Z,9.27
2017-11-18T09:38:24.497Z,9.80
2017-11-18T09:40:51.931Z,10.03
2017-11-18T09:43:20.083Z,10.43
2017-11-18T09:45:47.517Z,10.87
2017-11-18T09:48:14.951Z,10.17
2017-11-18T09:50:42.403Z,10.93
2017-11-18T09:53:09.840Z,9.90
2017-11-18T09:55:38.159Z,9.67
2017-11-18T09:58:05.732Z,10.87
2017-11-18T10:00:33.117Z,10.37
2017-11-18T10:03:01.318Z,10.80
2017-11-18T10:05:29.858Z,10.87
2017-11-18T10:08:00.591Z,11.20
2017-11-18T10:10:28.857Z,10.90
2017-11-18T10:12:56.288Z,11.43
2017-11-18T10:15:23.709Z,12.17
2017-11-18T10:17:51.963Z,11.13
2017-11-18T10:20:19.394Z,10.00
2017-11-18T10:22:46.831Z,11.03
2017-11-18T10:25:14.825Z,9.83
2017-11-18T10:27:42.263Z,8.40
2017-11-18T10:30:09.702Z,8.70
2017-11-18T10:32:37.128Z,7.00
2017-11-18T10:35:08.087Z,6.40
2017-11-18T10:37:35.521Z,7.03
2017-11-18T10:40:04.035Z,6.60
2017-11-18T10:42:32.596Z,5.47
2017-11-18T10:45:00.785Z,5.53
2017-11-18T10:47:28.216Z,5.70
2017-11-18T10:49:56.962Z,5.73
2017-11-18T10:52:24.420Z,5.67
2017-11-18T10:54:51.847Z,5.30
2017-11-18T10:57:19.381Z,5.40
2017-11-18T10:59:47.582Z,4.80
2017-11-18T11:02:17.433Z,4.73
2017-11-18T11:07:19.319Z,5.13
2017-11-18T11:09:46.759Z,5.43
2017-11-18T11:12:14.185Z,6.53
2017-11-18T11:14:41.622Z,7.20
2017-11-18T11:17:09.814Z,6.83
2017-11-18T11:19:37.261Z,7.30
2017-11-18T11:22:05.501Z,7.83
2017-11-18T11:24:34.850Z,7.67
2017-11-18T11:27:03.021Z,7.77
2017-11-18T11:29:30.448Z,7.57
2017-11-18T11:31:57.865Z,7.73
2017-11-18T11:34:25.308Z,7.83
2017-11-18T11:36:52.724Z,7.70
2017-11-18T11:39:20.927Z,7.37
2017-11-18T11:41:48.351Z,7.50
2017-11-18T11:44:15.779Z,7.30
2017-11-18T11:46:43.805Z,5.70
2017-11-18T11:49:11.658Z,5.03
2017-11-18T11:51:39.079Z,5.67
2017-11-18T11:54:06.927Z,5.77
2017-11-18T11:56:35.797Z,5.30
2017-11-18T11:59:03.241Z,6.07
2017-11-18T12:01:30.673Z,5.10
2017-11-18T12:03:58.955Z,4.43
2017-11-18T12:06:27.155Z,3.87
2017-11-18T12:08:54.568Z,4.30
2017-11-18T12:11:22.004Z,3.97
2017-11-18T12:13:49.521Z,4.27
2017-11-18T12:16:16.952Z,3.70
2017-11-18T12:18:44.382Z,3.97
2017-11-18T12:21:11.818Z,3.93
2017-11-18T12:23:39.245Z,3.90
2017-11-18T12:26:06.670Z,4.43
2017-11-18T12:28:34.650Z,4.07
2017-11-18T12:31:03.327Z,4.23
2017-11-18T12:33:30.742Z,3.40
2017-11-18T12:35:58.891Z,3.53
2017-11-18T12:38:26.330Z,3.37
2017-11-18T12:40:53.761Z,3.50
2017-11-18T12:43:21.187Z,3.87
2017-11-18T12:45:48.612Z,3.00
2017-11-18T12:48:16.033Z,3.10
2017-11-18T12:50:43.466Z,3.20
2017-11-18T12:53:11.685Z,3.57
2017-11-18T12:55:39.883Z,3.37
2017-11-18T12:58:07.621Z,3.30
2017-11-18T13:00:35.812Z,3.37
2017-11-18T13:03:03.229Z,3.30
2017-11-18T13:05:30.677Z,2.87
2017-11-18T13:07:58.088Z,3.20
2017-11-18T13:10:25.506Z,3.80
2017-11-18T13:12:52.960Z,3.47
2017-11-18T13:15:20.481Z,3.87
2017-11-18T13:17:48.317Z,3.50
2017-11-18T13:20:16.796Z,3.40
2017-11-18T13:22:44.991Z,2.70
2017-11-18T13:25:12.802Z,2.93
2017-11-18T13:27:40.249Z,2.93
2017-11-18T13:30:07.671Z,2.87
2017-11-18T13:32:35.418Z,2.73
2017-11-18T13:35:02.820Z,2.70
2017-11-18T13:37:30.643Z,3.33
2017-11-18T13:39:58.816Z,2.97
2017-11-18T13:42:26.355Z,3.27
2017-11-18T13:44:53.789Z,3.47
2017-11-18T13:47:21.221Z,2.93
2017-11-18T13:49:49.190Z,3.10
2017-11-18T13:52:16.618Z,3.30
2017-11-18T13:54:44.037Z,3.00
2017-11-18T13:57:11.474Z,2.77
2017-11-18T13:59:38.915Z,3.20
2017-11-18T14:02:06.617Z,3.53
2017-11-18T14:04:34.045Z,3.20
2017-11-18T14:07:02.122Z,3.60
2017-11-18T14:09:29.553Z,3.47
2017-11-18T14:11:56.980Z,3.33
2017-11-18T14:14:25.184Z,3.10
2017-11-18T14:16:53.021Z,3.30
2017-11-18T14:19:21.233Z,3.53
2017-11-18T14:21:48.681Z,4.07
2017-11-18T14:24:16.132Z,3.00
2017-11-18T14:26:43.563Z,4.33
2017-11-18T14:29:11.788Z,3.70
2017-11-18T14:31:39.201Z,3.57
2017-11-18T14:34:06.627Z,3.57
2017-11-18T14:36:34.053Z,3.73
2017-11-18T14:39:01.482Z,3.70
2017-11-18T14:41:28.927Z,3.50
2017-11-18T14:43:57.138Z,3.77
2017-11-18T14:46:24.583Z,3.30
2017-11-18T14:48:52.026Z,3.50
2017-11-18T14:53:54.212Z,3.70
2017-11-18T14:56:21.638Z,3.50
2017-11-18T14:58:49.478Z,3.80
2017-11-18T15:01:16.901Z,3.17
2017-11-18T15:03:44.356Z,2.70
2017-11-18T15:06:11.774Z,2.87
2017-11-18T15:08:39.969Z,3.03
2017-11-18T15:11:07.401Z,3.13
2017-11-18T15:13:35.593Z,3.33
2017-11-18T15:16:19.234Z,2.80
2017-11-18T15:18:49.278Z,3.60
2017-11-18T15:21:22.352Z,3.17
2017-11-18T15:23:55.789Z,3.30
2017-11-18T15:29:44.301Z,3.33
2017-11-18T15:32:18.933Z,3.03
2017-11-18T15:34:51.935Z,3.47
2017-11-18T15:37:34.935Z,3.23
2017-11-18T15:40:03.127Z,3.07
2017-11-18T15:42:31.236Z,2.97
2017-11-18T15:45:02.282Z,3.00
2017-11-18T15:47:46.583Z,3.37
2017-11-18T15:50:26.464Z,3.67
2017-11-18T15:56:05.661Z,3.53
2017-11-18T15:58:33.537Z,3.30
2017-11-18T16:01:07.870Z,3.63
2017-11-18T16:03:39.996Z,3.70
2017-11-18T16:06:07.425Z,3.60
2017-11-18T16:08:34.849Z,3.77
2017-11-18T16:11:03.046Z,3.80
2017-11-18T16:13:30.480Z,3.60
2017-11-18T16:15:58.842Z,3.97
2017-11-18T16:18:27.036Z,3.80
2017-11-18T16:20:55.362Z,4.13
2017-11-18T16:23:22.778Z,4.20
2017-11-18T16:25:50.222Z,4.07
2017-11-18T16:28:18.425Z,4.13
2017-11-18T16:30:45.845Z,3.97
2017-11-18T16:33:14.041Z,3.77
2017-11-18T16:35:41.455Z,4.10
2017-11-18T16:38:08.884Z,3.37
2017-11-18T16:40:36.303Z,3.70
2017-11-18T16:43:03.736Z,2.90
2017-11-18T16:45:33.489Z,2.63
2017-11-18T16:48:01.543Z,2.60
2017-11-18T16:50:28.975Z,2.90
2017-11-18T16:52:56.400Z,2.87
2017-11-18T16:55:24.042Z,2.70
2017-11-18T16:57:51.478Z,2.27
2017-11-18T17:00:18.897Z,2.10
2017-11-18T17:02:46.334Z,2.17
2017-11-18T17:05:13.770Z,2.47
2017-11-18T17:07:41.633Z,2.10
2017-11-18T17:10:09.191Z,2.07
2017-11-18T17:12:36.613Z,2.20
2017-11-18T17:15:05.316Z,2.10
2017-11-18T17:17:32.746Z,2.27
2017-11-18T17:20:00.685Z,2.23
2017-11-18T17:22:28.940Z,2.00
2017-11-18T17:24:56.349Z,1.87
2017-11-18T17:27:24.550Z,2.00
2017-11-18T17:29:51.988Z,2.57
2017-11-18T17:32:20.201Z,2.00
2017-11-18T17:34:47.627Z,2.03
2017-11-18T17:37:15.810Z,2.00
2017-11-18T17:39:43.240Z,2.03
2017-11-18T17:42:11.061Z,2.30
2017-11-18T17:44:38.490Z,2.30
2017-11-18T17:47:06.242Z,2.23
2017-11-18T17:49:34.450Z,3.17
2017-11-18T17:52:02.279Z,2.40
2017-11-18T17:54:30.480Z,2.17
2017-11-18T17:56:57.909Z,2.20
2017-11-18T17:59:26.105Z,1.80
2017-11-18T18:01:54.064Z,2.30
2017-11-18T18:04:21.510Z,2.67
2017-11-18T18:06:49.927Z,1.87
2017-11-18T18:09:17.472Z,2.40
2017-11-18T18:11:44.991Z,3.13
2017-11-18T18:14:13.341Z,2.27
2017-11-18T18:16:40.745Z,2.10
2017-11-18T18:19:08.957Z,2.13
2017-11-18T18:21:36.368Z,2.50
2017-11-18T18:24:04.587Z,2.63
2017-11-18T18:26:32.026Z,2.23
2017-11-18T18:28:59.478Z,2.40
2017-11-18T18:31:26.994Z,2.50
2017-11-18T18:33:54.413Z,2.20
2017-11-18T18:36:21.855Z,2.10
2017-11-18T18:38:49.756Z,2.60
2017-11-18T18:41:17.175Z,2.47
2017-11-18T18:43:44.595Z,2.47
2017-11-18T18:46:12.009Z,2.80
2017-11-18T18:48:39.835Z,2.67
2017-11-18T18:51:08.026Z,2.90
2017-11-18T18:53:35.445Z,2.87
2017-11-18T18:56:03.303Z,3.00
2017-11-18T18:58:32.629Z,3.40
2017-11-18T19:01:00.828Z,3.07
2017-11-18T19:03:28.318Z,3.33
2017-11-18T19:05:55.756Z,3.57
2017-11-18T19:08:25.714Z,3.40
2017-11-18T19:10:53.150Z,3.60
2017-11-18T19:13:21.426Z,3.67
2017-11-18T19:15:48.881Z,3.60
2017-11-18T19:18:16.700Z,4.00
2017-11-18T19:20:45.297Z,3.90
2017-11-18T19:23:12.729Z,3.90
2017-11-18T19:25:40.953Z,4.00
2017-11-18T19:28:08.372Z,4.30
2017-11-18T19:30:36.561Z,4.20
2017-11-18T19:33:04.098Z,4.17
2017-11-18T19:35:32.284Z,4.13
2017-11-18T19:38:02.371Z,4.17
2017-11-18T19:40:29.817Z,3.50
2017-11-18T19:42:57.256Z,3.97
2017-11-18T19:45:25.545Z,4.03
2017-11-18T19:47:52.973Z,4.07
2017-11-18T19:50:21.022Z,4.30
2017-11-18T19:52:48.974Z,4.20
2017-11-18T19:55:17.178Z,4.37
2017-11-18T19:57:44.602Z,4.83
2017-11-18T20:00:12.814Z,4.27
2017-11-18T20:02:40.257Z,4.63
2017-11-18T20:05:07.691Z,5.00
2017-11-18T20:07:35.895Z,4.93
2017-11-18T20:10:03.314Z,5.30
2017-11-18T20:12:30.753Z,4.97
2017-11-18T20:17:23.921Z,4.57
2017-11-18T20:19:54.658Z,6.00
2017-11-18T20:22:22.107Z,4.80
2017-11-18T20:24:49.639Z,5.63
2017-11-18T20:27:17.544Z,5.87
2017-11-18T20:29:44.973Z,5.73
2017-11-18T20:32:13.005Z,6.73
2017-11-18T20:34:41.208Z,6.10
2017-11-18T20:37:09.837Z,5.83
2017-11-18T20:39:37.273Z,6.33
2017-11-18T20:42:05.242Z,6.80
2017-11-18T20:44:33.232Z,6.30
2017-11-18T20:47:01.090Z,6.37
2017-11-18T20:49:28.737Z,5.90
2017-11-18T20:51:56.736Z,7.13
2017-11-18T20:54:24.159Z,6.93
2017-11-18T20:56:51.610Z,6.93
2017-11-18T20:59:19.022Z,7.63
2017-11-18T21:01:47.260Z,7.20
2017-11-18T21:04:14.698Z,7.37
2017-11-18T21:06:42.134Z,7.43
2017-11-18T21:09:10.503Z,7.23
2017-11-18T21:11:38.692Z,7.57
2017-11-18T21:14:08.619Z,7.50
2017-11-18T21:16:36.048Z,7.70
2017-11-18T21:19:04.293Z,7.83
2017-11-18T21:21:32.508Z,7.70
2017-11-18T21:23:59.961Z,8.43
2017-11-18T21:26:28.557Z,8.17
2017-11-18T21:28:56.433Z,9.30
2017-11-18T21:31:24.438Z,8.73
2017-11-18T21:33:51.866Z,7.83
2017-11-18T21:36:19.301Z,9.03
2017-11-18T21:38:46.738Z,8.63
2017-11-18T21:41:15.879Z,8.23
2017-11-18T21:43:43.294Z,8.47
2017-11-18T21:46:11.507Z,8.10
2017-11-18T21:48:38.970Z,9.07
2017-11-18T21:51:07.166Z,8.80
2017-11-18T21:53:34.680Z,9.57
2017-11-18T21:56:02.140Z,9.17
2017-11-18T21:58:30.329Z,9.77
2017-11-18T22:00:57.786Z,9.33
2017-11-18T22:03:25.686Z,10.03
2017-11-18T22:05:53.140Z,9.97
2017-11-18T22:08:20.568Z,9.33
2017-11-18T22:10:48.122Z,9.33
2017-11-18T22:13:15.545Z,10.07
2017-11-18T22:15:43.768Z,9.53
2017-11-18T22:18:11.219Z,9.10
2017-11-18T22:20:38.670Z,9.30
2017-11-18T22:23:06.541Z,9.00
2017-11-18T22:25:34.942Z,9.57
2017-11-18T22:28:03.158Z,10.17
2017-11-18T22:30:31.382Z,11.17
2017-11-18T22:32:58.828Z,10.17
2017-11-18T22:35:26.689Z,11.40
2017-11-18T22:37:54.889Z,11.83
2017-11-18T22:40:22.378Z,10.67
2017-11-18T22:42:50.607Z,10.83
2017-11-18T22:45:18.034Z,10.93
2017-11-18T22:47:45.511Z,10.23
2017-11-18T22:50:13.839Z,10.97
2017-11-18T22:52:41.857Z,10.30
2017-11-18T22:55:09.293Z,9.97
2017-11-18T22:57:36.991Z,10.37
2017-11-18T23:00:04.412Z,10.50
2017-11-18T23:02:32.608Z,10.73
2017-11-18T23:05:00.035Z,11.23
2017-11-18T23:07:28.239Z,10.37
2017-11-18T23:09:55.678Z,10.60
2017-11-18T23:12:23.875Z,9.73
2017-11-18T23:14:52.070Z,10.10
2017-11-18T23:17:19.506Z,10.40
2017-11-18T23:19:46.935Z,9.63
2017-11-18T23:22:15.135Z,9.77
2017-11-18T23:24:43.463Z,10.20
2017-11-18T23:27:11.565Z,9.57
2017-11-18T23:29:39.009Z,9.87
2017-11-18T23:32:07.587Z,9.80
2017-11-18T23:34:34.994Z,8.70
2017-11-18T23:37:03.103Z,9.63
2017-11-18T23:39:30.542Z,9.40
2017-11-18T23:41:58.249Z,9.60
2017-11-18T23:44:26.470Z,9.30
2017-11-18T23:46:53.890Z,9.73
2017-11-18T23:49:21.322Z,9.43
2017-11-18T23:51:49.541Z,9.50
2017-11-18T23:54:18.180Z,10.57
2017-11-18T23:56:46.391Z,9.93
2017-11-18T23:59:28.357Z,10.73
